Hartford Brainard Airport
KHFD : rendu visible

Aérodrome :











RETROUVEZ-NOUS SUR...

 
LOGIN :

S'inscrire | Disclaimer

   EN    FR    IT 

 









Légende :    VFR   VFR Marginal   IFR   IFR Intensif   IFR Très Intensif
Visi : 
Plafond : 
>= 8 km
>= 3000ft
5 à 8 km
1000 à 3000 ft
1500m à 5 km
500 à 1000 ft
800 à 1500m
200 à 500 ft
< 800m
< 200 ft
Symboles :   Orages  Brouillard  Fortes neiges  Fortes précipitations  Vent > 20 kt






- Altitude de l'aérodrome : 18 ft


KHFD - Hartford Brainard

DERNIER METAR :
  • 202353Z 34005KT 10SM OVC037 04/M01 A3001 RMK AO2 SLP162 60000 T00391006 10061 20039 53018

METARs EXPIRÉS :
  • 202253Z 33007KT 10SM FEW026 BKN031 OVC044 04/M01 A2999 RMK AO2 SLP155 T00391006
  • 202153Z 32008KT 10SM FEW020 SCT027 OVC055 04/00 A2997 RMK AO2 SLP149 T00390000

TAF N/A



MET'MAP, la Météo Aéronautique d'un coup d'oeil ! - Copyright ORBIFLY Décembre 2007 - Disclaimer

ORBIFLY MET'MAP TEAM :

Programmation & Développement : Alexandra Zaïnal
Conception & Développement : Baudouin d'Aumeries
Co-Programmation & Développement : Marc-Olivier Méhu
Soutien technique & logistique : Manuel Goepfert

Contact : metmap@orbifly.com




SOURCES & CREDITS :

   NOAA       Earth
Advisory